createdAt,value
2023-05-21T00:00:58.239Z,9.73
2023-05-21T00:01:58.262Z,9.60
2023-05-21T00:02:58.347Z,9.60
2023-05-21T00:03:58.371Z,9.76
2023-05-21T00:04:58.263Z,9.87
2023-05-21T00:05:58.282Z,9.70
2023-05-21T00:06:58.285Z,9.52
2023-05-21T00:07:58.274Z,9.61
2023-05-21T00:08:58.264Z,9.71
2023-05-21T00:09:58.304Z,9.52
2023-05-21T00:10:58.324Z,9.97
2023-05-21T00:11:58.356Z,10.34
2023-05-21T00:12:58.456Z,10.17
2023-05-21T00:13:58.502Z,9.94
2023-05-21T00:14:58.580Z,9.96
2023-05-21T00:15:58.680Z,10.34
2023-05-21T00:16:58.626Z,10.45
2023-05-21T00:17:58.678Z,10.77
2023-05-21T00:18:58.763Z,11.12
2023-05-21T00:19:58.637Z,11.08
2023-05-21T00:20:58.645Z,10.88
2023-05-21T00:21:58.613Z,10.69
2023-05-21T00:22:58.646Z,10.64
2023-05-21T00:23:58.631Z,10.82
2023-05-21T00:24:58.682Z,11.13
2023-05-21T00:25:58.674Z,11.46
2023-05-21T00:26:58.703Z,11.04
2023-05-21T00:27:58.658Z,10.97
2023-05-21T00:28:58.683Z,11.40
2023-05-21T00:29:58.696Z,11.35
2023-05-21T00:30:58.692Z,10.94
2023-05-21T00:31:58.712Z,10.77
2023-05-21T00:32:58.872Z,10.92
2023-05-21T00:33:58.704Z,11.12
2023-05-21T00:34:58.733Z,11.14
2023-05-21T00:35:58.749Z,11.18
2023-05-21T00:36:58.744Z,11.33
2023-05-21T00:37:58.745Z,11.01
2023-05-21T00:38:58.766Z,10.74
2023-05-21T00:39:58.781Z,10.31
2023-05-21T00:40:58.762Z,10.51
2023-05-21T00:41:58.762Z,10.33
2023-05-21T00:42:58.755Z,10.26
2023-05-21T00:43:58.800Z,10.36
2023-05-21T00:44:58.805Z,10.27
2023-05-21T00:45:58.889Z,10.61
2023-05-21T00:46:58.836Z,10.40
2023-05-21T00:47:58.854Z,10.85
2023-05-21T00:48:58.827Z,11.70
2023-05-21T00:49:58.832Z,11.54
2023-05-21T00:50:58.839Z,11.33
2023-05-21T00:51:58.843Z,11.48
2023-05-21T00:52:58.859Z,11.70
2023-05-21T00:53:58.872Z,11.10
2023-05-21T00:54:58.889Z,11.75
2023-05-21T00:55:58.892Z,11.32
2023-05-21T00:56:58.891Z,11.34
2023-05-21T00:57:58.891Z,11.54
2023-05-21T00:58:58.904Z,11.92
2023-05-21T00:59:58.926Z,12.05
2023-05-21T01:00:58.970Z,11.80
2023-05-21T01:01:58.969Z,12.48
2023-05-21T01:02:59.022Z,12.34
2023-05-21T01:03:58.926Z,12.20
2023-05-21T01:04:58.942Z,12.00
2023-05-21T01:05:58.925Z,12.01
2023-05-21T01:06:58.938Z,12.66
2023-05-21T01:07:58.962Z,12.12
2023-05-21T01:08:58.942Z,12.79
2023-05-21T01:09:58.964Z,13.02
2023-05-21T01:10:58.934Z,13.03
2023-05-21T01:11:58.950Z,12.76
2023-05-21T01:12:59.002Z,12.67
2023-05-21T01:13:58.985Z,12.73
2023-05-21T01:14:58.968Z,13.19
2023-05-21T01:15:58.986Z,13.27
2023-05-21T01:16:59.063Z,13.47
2023-05-21T01:17:59.069Z,13.27
2023-05-21T01:18:59.080Z,13.38
2023-05-21T01:19:59.038Z,13.37
2023-05-21T01:20:59.037Z,13.13
2023-05-21T01:21:59.067Z,13.26
2023-05-21T01:22:59.056Z,13.38
2023-05-21T01:23:59.021Z,13.84
2023-05-21T01:24:59.036Z,14.46
2023-05-21T01:25:59.087Z,14.14
2023-05-21T01:26:59.066Z,13.54
2023-05-21T01:27:59.070Z,13.93
2023-05-21T01:28:59.121Z,14.48
2023-05-21T01:29:59.115Z,14.20
2023-05-21T01:30:59.115Z,14.22
2023-05-21T01:31:59.855Z,14.54
2023-05-21T01:32:59.201Z,15.14
2023-05-21T01:33:59.197Z,14.87
2023-05-21T01:34:59.145Z,14.74
2023-05-21T01:35:59.152Z,14.72
2023-05-21T01:36:59.165Z,14.68
2023-05-21T01:37:59.259Z,15.21
2023-05-21T01:38:59.175Z,15.85
2023-05-21T01:39:59.184Z,16.20
2023-05-21T01:40:59.181Z,16.35
2023-05-21T01:41:59.197Z,16.48
2023-05-21T01:42:59.193Z,16.56
2023-05-21T01:43:59.164Z,15.80
2023-05-21T01:44:59.241Z,16.29
2023-05-21T01:45:59.252Z,15.85
2023-05-21T01:46:59.228Z,15.51
2023-05-21T01:47:59.298Z,16.00
2023-05-21T01:48:59.202Z,16.44
2023-05-21T01:49:59.252Z,16.34
2023-05-21T01:50:59.253Z,16.44
2023-05-21T01:51:59.249Z,16.49
2023-05-21T01:52:59.246Z,15.76
2023-05-21T01:53:59.315Z,16.84
2023-05-21T01:54:59.379Z,16.47
2023-05-21T01:55:59.450Z,16.05
2023-05-21T01:56:59.458Z,16.28
2023-05-21T01:58:02.031Z,16.36
2023-05-21T01:58:59.604Z,16.62
2023-05-21T01:59:59.482Z,16.78
2023-05-21T02:00:59.528Z,17.17
2023-05-21T02:01:59.481Z,16.96
2023-05-21T02:02:59.560Z,17.42
2023-05-21T02:03:59.500Z,17.62
2023-05-21T02:04:59.491Z,17.33
2023-05-21T02:05:59.480Z,16.44
2023-05-21T02:06:59.420Z,16.32
2023-05-21T02:07:59.470Z,16.45
2023-05-21T02:08:59.440Z,16.89
2023-05-21T02:09:59.440Z,17.17
2023-05-21T02:10:59.427Z,17.13
2023-05-21T02:11:59.417Z,17.40
2023-05-21T02:12:59.404Z,17.89
2023-05-21T02:13:59.410Z,17.49
2023-05-21T02:14:59.430Z,16.88
2023-05-21T02:15:59.464Z,17.04
2023-05-21T02:16:59.376Z,17.28
2023-05-21T02:17:59.420Z,17.59
2023-05-21T02:18:59.404Z,18.10
2023-05-21T02:19:59.374Z,16.97
2023-05-21T02:20:59.350Z,17.20
2023-05-21T02:21:59.336Z,17.75
2023-05-21T02:22:59.326Z,17.80
2023-05-21T02:23:59.355Z,17.65
2023-05-21T02:24:59.335Z,18.49
2023-05-21T02:25:59.355Z,17.82
2023-05-21T02:26:59.327Z,17.36
2023-05-21T02:27:59.310Z,17.61
2023-05-21T02:28:59.310Z,17.24
2023-05-21T02:29:59.317Z,17.45
2023-05-21T02:30:59.275Z,17.17
2023-05-21T02:31:59.301Z,17.01
2023-05-21T02:32:59.345Z,16.53
2023-05-21T02:33:59.308Z,16.14
2023-05-21T02:34:59.298Z,16.29
2023-05-21T02:35:59.260Z,16.92
2023-05-21T02:36:59.238Z,16.57
2023-05-21T02:37:59.408Z,17.27
2023-05-21T02:38:59.229Z,17.56
2023-05-21T02:39:59.246Z,17.07
2023-05-21T02:40:59.221Z,17.02
2023-05-21T02:41:59.202Z,16.62
2023-05-21T02:42:59.203Z,16.51
2023-05-21T02:43:59.201Z,16.95
2023-05-21T02:44:59.212Z,17.15
2023-05-21T02:45:59.267Z,16.98
2023-05-21T02:47:00.346Z,17.51
2023-05-21T02:47:59.232Z,17.54
2023-05-21T02:48:59.182Z,17.85
2023-05-21T02:49:59.161Z,17.97
2023-05-21T02:50:59.174Z,18.40
2023-05-21T02:51:59.163Z,18.80
2023-05-21T02:52:59.124Z,17.91
2023-05-21T02:53:59.132Z,17.83
2023-05-21T02:54:59.145Z,18.15
2023-05-21T02:55:59.138Z,17.97
2023-05-21T02:56:59.101Z,18.49
2023-05-21T02:57:59.104Z,18.97
2023-05-21T02:58:59.080Z,19.54
2023-05-21T02:59:59.087Z,19.02
2023-05-21T03:00:59.159Z,18.89
2023-05-21T03:01:59.143Z,19.44
2023-05-21T03:02:59.100Z,19.11
2023-05-21T03:03:59.079Z,18.83
2023-05-21T03:04:59.077Z,19.32
2023-05-21T03:05:59.083Z,18.90
2023-05-21T03:06:59.066Z,18.97
2023-05-21T03:07:59.059Z,19.49
2023-05-21T03:08:59.052Z,18.97
2023-05-21T03:09:59.023Z,18.28
2023-05-21T03:10:59.054Z,17.89
2023-05-21T03:11:59.032Z,18.24
2023-05-21T03:12:59.018Z,18.25
2023-05-21T03:13:59.027Z,18.42
2023-05-21T03:14:59.003Z,18.04
2023-05-21T03:15:59.016Z,18.71
2023-05-21T03:16:59.061Z,18.57
2023-05-21T03:17:59.028Z,18.59
2023-05-21T03:18:59.024Z,18.16
2023-05-21T03:19:58.990Z,17.67
2023-05-21T03:20:59.012Z,17.71
2023-05-21T03:21:58.942Z,17.49
2023-05-21T03:22:58.959Z,17.32
2023-05-21T03:23:58.973Z,18.01
2023-05-21T03:24:58.969Z,17.75
2023-05-21T03:25:58.907Z,17.44
2023-05-21T03:26:58.916Z,17.69
2023-05-21T03:27:58.933Z,17.86
2023-05-21T03:28:58.920Z,17.75
2023-05-21T03:29:58.919Z,17.61
2023-05-21T03:30:58.908Z,17.90
2023-05-21T03:31:58.965Z,17.95
2023-05-21T03:32:58.933Z,17.80
2023-05-21T03:33:58.860Z,17.80
2023-05-21T03:34:58.858Z,17.35
2023-05-21T03:35:58.890Z,17.98
2023-05-21T03:36:58.857Z,18.04
2023-05-21T03:37:58.856Z,18.11
2023-05-21T03:38:58.871Z,18.05
2023-05-21T03:39:58.851Z,17.77
2023-05-21T03:40:58.819Z,18.86
2023-05-21T03:41:58.823Z,18.53
2023-05-21T03:42:58.816Z,18.54
2023-05-21T03:43:58.815Z,18.38
2023-05-21T03:44:58.791Z,17.86
2023-05-21T03:45:58.853Z,17.90
2023-05-21T03:46:58.796Z,18.42
2023-05-21T03:47:58.926Z,18.28
2023-05-21T03:48:58.836Z,18.74
2023-05-21T03:49:58.831Z,18.05
2023-05-21T03:50:58.877Z,17.97
2023-05-21T03:51:58.863Z,18.13
2023-05-21T03:52:58.896Z,18.25
2023-05-21T03:53:58.914Z,18.10
2023-05-21T03:54:58.930Z,18.54
2023-05-21T03:55:58.931Z,18.36
2023-05-21T03:56:59.932Z,18.61
2023-05-21T03:57:58.976Z,18.25
2023-05-21T03:58:59.002Z,18.41
2023-05-21T03:59:59.058Z,18.50
2023-05-21T04:00:59.155Z,18.52
2023-05-21T04:01:59.020Z,18.08
2023-05-21T04:02:59.108Z,17.34
2023-05-21T04:03:59.124Z,17.53
2023-05-21T04:04:59.054Z,18.50
2023-05-21T04:05:59.050Z,18.82
2023-05-21T04:06:59.062Z,18.38
2023-05-21T04:07:59.085Z,18.34
2023-05-21T04:08:59.119Z,18.60
2023-05-21T04:09:59.102Z,17.98
2023-05-21T04:10:59.097Z,19.05
2023-05-21T04:11:59.105Z,18.54
2023-05-21T04:12:59.142Z,19.10
2023-05-21T04:13:59.139Z,18.19
2023-05-21T04:14:59.182Z,18.41
2023-05-21T04:15:59.212Z,18.95
2023-05-21T04:16:59.203Z,19.03
2023-05-21T04:17:59.253Z,18.73
2023-05-21T04:18:59.210Z,18.57
2023-05-21T04:19:59.192Z,18.21
2023-05-21T04:20:59.255Z,18.05
2023-05-21T04:21:59.245Z,18.19
2023-05-21T04:22:59.258Z,19.23
2023-05-21T04:23:59.260Z,18.24
2023-05-21T04:24:59.257Z,19.38
2023-05-21T04:25:59.288Z,18.72
2023-05-21T04:26:59.279Z,18.32
2023-05-21T04:27:59.253Z,18.98
2023-05-21T04:28:59.255Z,19.18
2023-05-21T04:29:59.311Z,20.08
2023-05-21T04:30:59.349Z,20.20
2023-05-21T04:31:59.423Z,20.24
2023-05-21T04:32:59.385Z,20.57
2023-05-21T04:33:59.332Z,20.59
2023-05-21T04:34:59.334Z,21.01
2023-05-21T04:35:59.374Z,20.68
2023-05-21T04:36:59.357Z,20.85
2023-05-21T04:37:59.366Z,21.10
2023-05-21T04:38:59.382Z,20.20
2023-05-21T04:39:59.376Z,20.37
2023-05-21T04:40:59.402Z,21.11
2023-05-21T04:41:59.441Z,20.99
2023-05-21T04:42:59.405Z,20.95
2023-05-21T04:43:59.456Z,21.30
2023-05-21T04:44:59.544Z,21.12
2023-05-21T04:45:59.455Z,21.32
2023-05-21T04:46:59.446Z,21.49
2023-05-21T04:47:59.504Z,21.88
2023-05-21T04:48:59.487Z,22.21
2023-05-21T04:49:59.490Z,21.93
2023-05-21T04:50:59.491Z,22.65
2023-05-21T04:51:59.488Z,22.94
2023-05-21T04:52:59.545Z,23.14
2023-05-21T04:53:59.610Z,22.64
2023-05-21T04:54:59.551Z,22.43
2023-05-21T04:55:59.515Z,22.39
2023-05-21T04:56:59.518Z,22.37
2023-05-21T04:57:59.554Z,22.28
2023-05-21T04:58:59.558Z,22.69
2023-05-21T04:59:59.556Z,22.76
2023-05-21T05:00:59.582Z,21.92
2023-05-21T05:01:59.571Z,22.68
2023-05-21T05:02:59.670Z,22.75
2023-05-21T05:03:59.664Z,23.59
2023-05-21T05:04:59.596Z,23.25
2023-05-21T05:05:59.572Z,22.54
2023-05-21T05:06:59.602Z,22.54
2023-05-21T05:07:59.573Z,22.81
2023-05-21T05:08:59.634Z,23.04
2023-05-21T05:09:59.608Z,24.54
2023-05-21T05:10:59.622Z,24.17
2023-05-21T05:11:59.644Z,24.35
2023-05-21T05:12:59.599Z,24.94
2023-05-21T05:13:59.630Z,24.16
2023-05-21T05:14:59.663Z,24.36
2023-05-21T05:15:59.630Z,24.56
2023-05-21T05:16:59.756Z,24.33
2023-05-21T05:17:59.681Z,24.66
2023-05-21T05:18:59.693Z,25.05
2023-05-21T05:19:59.652Z,24.74
2023-05-21T05:20:59.686Z,24.52
2023-05-21T05:21:59.675Z,24.61
2023-05-21T05:22:59.691Z,25.87
2023-05-21T05:23:59.673Z,26.06
2023-05-21T05:24:59.688Z,25.52
2023-05-21T05:25:59.691Z,26.54
2023-05-21T05:26:59.680Z,27.32
2023-05-21T05:27:59.719Z,27.85
2023-05-21T05:28:59.677Z,26.99
2023-05-21T05:29:59.664Z,27.17
2023-05-21T05:30:59.755Z,26.86
2023-05-21T05:31:59.710Z,27.01
2023-05-21T05:32:59.812Z,26.63
2023-05-21T05:33:59.824Z,27.12
2023-05-21T05:35:02.120Z,27.06
2023-05-21T05:36:00.014Z,26.62
2023-05-21T05:37:00.000Z,26.56
2023-05-21T05:38:00.020Z,27.08
2023-05-21T05:39:00.038Z,26.58
2023-05-21T05:40:00.056Z,26.10
2023-05-21T05:41:00.028Z,26.67
2023-05-21T05:42:00.077Z,25.66
2023-05-21T05:43:00.047Z,25.16
2023-05-21T05:44:00.074Z,25.12
2023-05-21T05:45:00.154Z,24.42
2023-05-21T05:46:00.170Z,24.16
2023-05-21T05:47:00.132Z,24.34
2023-05-21T05:48:00.146Z,23.61
2023-05-21T05:49:00.097Z,25.20
2023-05-21T05:50:00.097Z,24.67
2023-05-21T05:51:00.137Z,23.71
2023-05-21T05:52:00.111Z,23.75
2023-05-21T05:53:00.109Z,23.37
2023-05-21T05:54:00.154Z,22.88
2023-05-21T05:55:00.141Z,21.48
2023-05-21T05:56:00.118Z,20.89
2023-05-21T05:57:00.128Z,20.58
2023-05-21T05:58:00.110Z,20.19
2023-05-21T05:59:00.130Z,19.95
2023-05-21T06:00:00.100Z,19.23
2023-05-21T06:01:00.148Z,18.71
2023-05-21T06:02:00.159Z,18.76
2023-05-21T06:03:00.229Z,18.45
2023-05-21T06:04:00.156Z,18.70
2023-05-21T06:05:00.191Z,18.95
2023-05-21T06:06:00.282Z,18.33
2023-05-21T06:07:00.274Z,18.22
2023-05-21T06:08:00.337Z,18.12
2023-05-21T06:09:00.429Z,17.84
2023-05-21T06:10:00.448Z,17.73
2023-05-21T06:11:00.507Z,17.44
2023-05-21T06:12:00.561Z,17.52
2023-05-21T06:13:00.581Z,17.70
2023-05-21T06:14:00.657Z,17.93
2023-05-21T06:15:00.638Z,18.65
2023-05-21T06:16:00.629Z,18.92
2023-05-21T06:17:00.665Z,19.27
2023-05-21T06:18:00.662Z,18.95
2023-05-21T06:19:00.690Z,18.79
2023-05-21T06:20:00.692Z,19.41
2023-05-21T06:21:00.685Z,20.51
2023-05-21T06:22:00.721Z,20.76
2023-05-21T06:23:00.736Z,20.34
2023-05-21T06:24:00.734Z,19.09
2023-05-21T06:25:00.741Z,18.14
2023-05-21T06:26:00.809Z,18.48
2023-05-21T06:27:00.784Z,20.14
2023-05-21T06:28:00.817Z,20.62
2023-05-21T06:29:00.834Z,19.22
2023-05-21T06:30:00.862Z,18.45
2023-05-21T06:31:00.874Z,18.94
2023-05-21T06:32:00.900Z,19.19
2023-05-21T06:33:00.964Z,21.60
2023-05-21T06:34:01.151Z,21.21
2023-05-21T06:35:00.996Z,19.57
2023-05-21T06:36:01.018Z,20.22
2023-05-21T06:37:01.059Z,20.22
2023-05-21T06:38:01.099Z,20.78
2023-05-21T06:39:01.213Z,19.23
2023-05-21T06:40:01.212Z,20.01
2023-05-21T06:41:01.241Z,21.13
2023-05-21T06:42:01.262Z,22.27
2023-05-21T06:43:01.332Z,20.34
2023-05-21T06:44:01.360Z,22.72
2023-05-21T06:45:01.378Z,22.74
2023-05-21T06:46:01.551Z,19.61
2023-05-21T06:47:01.474Z,17.84
2023-05-21T06:48:01.582Z,18.60
2023-05-21T06:49:01.543Z,18.58
2023-05-21T06:50:01.589Z,18.90
2023-05-21T06:51:01.644Z,19.17
2023-05-21T06:52:01.681Z,17.74
2023-05-21T06:53:01.735Z,18.88
2023-05-21T06:54:01.779Z,17.66
2023-05-21T06:55:01.808Z,17.31
2023-05-21T06:56:01.843Z,16.81
2023-05-21T06:57:01.929Z,16.62
2023-05-21T06:58:01.973Z,17.26
2023-05-21T06:59:02.006Z,17.55
2023-05-21T07:00:02.067Z,19.36
2023-05-21T07:01:02.117Z,17.22
2023-05-21T07:02:04.481Z,15.89
2023-05-21T07:03:02.398Z,15.60
2023-05-21T07:04:02.470Z,14.58
2023-05-21T07:05:02.450Z,14.14
2023-05-21T07:06:02.549Z,14.51
2023-05-21T07:07:02.614Z,15.92
2023-05-21T07:08:02.643Z,15.92
2023-05-21T07:09:02.716Z,16.46
2023-05-21T07:10:02.766Z,17.08
2023-05-21T07:11:02.832Z,16.59
2023-05-21T07:12:02.924Z,17.18
2023-05-21T07:13:02.951Z,17.66
2023-05-21T07:14:03.033Z,16.62
2023-05-21T07:15:03.102Z,16.67
2023-05-21T07:16:03.167Z,16.58
2023-05-21T07:17:03.346Z,15.33
2023-05-21T07:18:03.369Z,14.31
2023-05-21T07:19:03.448Z,13.69
2023-05-21T07:20:03.409Z,13.76
2023-05-21T07:21:03.471Z,14.35
2023-05-21T07:22:03.554Z,13.18
2023-05-21T07:23:03.585Z,12.63
2023-05-21T07:24:03.632Z,14.09
2023-05-21T07:25:03.709Z,13.41
2023-05-21T07:26:03.764Z,14.83
2023-05-21T07:27:11.357Z,14.30
2023-05-21T07:28:06.659Z,14.33
2023-05-21T07:29:03.807Z,14.53
2023-05-21T07:30:03.797Z,15.06
2023-05-21T07:31:03.858Z,15.30
2023-05-21T07:32:03.801Z,15.71
2023-05-21T07:33:03.832Z,16.21
2023-05-21T07:34:03.766Z,15.68
2023-05-21T07:35:03.781Z,15.05
2023-05-21T07:36:03.749Z,15.02
2023-05-21T07:37:03.755Z,15.55
2023-05-21T07:38:03.775Z,16.26
2023-05-21T07:39:03.720Z,17.23
2023-05-21T07:40:03.726Z,16.92
2023-05-21T07:41:03.725Z,17.26
2023-05-21T07:42:03.726Z,17.09
2023-05-21T07:43:03.712Z,16.85
2023-05-21T07:44:03.701Z,17.23
2023-05-21T07:45:03.689Z,17.45
2023-05-21T07:46:03.710Z,18.02
2023-05-21T07:47:03.681Z,18.44
2023-05-21T07:48:03.695Z,18.33
2023-05-21T07:49:03.668Z,18.22
2023-05-21T07:50:03.693Z,17.70
2023-05-21T07:51:03.669Z,17.48
2023-05-21T07:52:03.650Z,17.71
2023-05-21T07:53:03.735Z,17.99
2023-05-21T07:54:03.649Z,18.15
2023-05-21T07:55:03.616Z,17.55
2023-05-21T07:56:03.604Z,16.82
2023-05-21T07:57:03.618Z,17.04
2023-05-21T07:58:03.624Z,17.09
2023-05-21T07:59:03.589Z,17.07
2023-05-21T08:00:03.617Z,16.24
2023-05-21T08:01:03.626Z,15.71
2023-05-21T08:02:03.583Z,15.94
2023-05-21T08:03:03.659Z,16.93
2023-05-21T08:04:03.739Z,17.47
2023-05-21T08:05:03.612Z,17.40
2023-05-21T08:06:04.064Z,18.10
2023-05-21T08:07:03.556Z,17.67
2023-05-21T08:08:03.577Z,17.48
2023-05-21T08:09:03.577Z,18.27
2023-05-21T08:10:03.523Z,17.69
2023-05-21T08:11:03.520Z,17.63
2023-05-21T08:12:03.540Z,14.17
2023-05-21T08:13:03.498Z,13.29
2023-05-21T08:14:03.499Z,12.24
2023-05-21T08:15:03.495Z,12.45
2023-05-21T08:16:03.555Z,12.60
2023-05-21T08:17:03.504Z,12.56
2023-05-21T08:18:03.523Z,12.65
2023-05-21T08:19:03.509Z,13.18
2023-05-21T08:20:03.453Z,12.93
2023-05-21T08:21:03.471Z,11.83
2023-05-21T08:22:03.467Z,12.23
2023-05-21T08:23:03.429Z,11.45
2023-05-21T08:24:03.453Z,11.44
2023-05-21T08:25:03.422Z,10.96
2023-05-21T08:26:03.405Z,10.78
2023-05-21T08:27:03.385Z,11.20
2023-05-21T08:28:03.419Z,10.71
2023-05-21T08:29:03.398Z,10.23
2023-05-21T08:30:03.403Z,9.81
2023-05-21T08:31:03.374Z,10.13
2023-05-21T08:32:03.457Z,10.33
2023-05-21T08:33:03.369Z,10.24
2023-05-21T08:34:03.371Z,10.55
2023-05-21T08:35:03.358Z,10.71
2023-05-21T08:36:03.335Z,10.72
2023-05-21T08:37:03.355Z,11.07
2023-05-21T08:38:03.349Z,10.39
2023-05-21T08:39:03.343Z,9.27
2023-05-21T08:40:03.322Z,9.29
2023-05-21T08:41:03.335Z,9.21
2023-05-21T08:42:03.314Z,8.74
2023-05-21T08:43:03.320Z,8.96
2023-05-21T08:44:03.328Z,8.87
2023-05-21T08:45:03.306Z,8.44
2023-05-21T08:46:03.668Z,8.22
2023-05-21T08:47:03.294Z,8.68
2023-05-21T08:48:03.322Z,8.08
2023-05-21T08:49:03.306Z,7.69
2023-05-21T08:50:03.313Z,6.18
2023-05-21T08:51:03.340Z,6.32
2023-05-21T08:52:03.344Z,6.37
2023-05-21T08:53:07.469Z,6.71
2023-05-21T08:54:04.351Z,6.73
2023-05-21T08:55:03.296Z,6.83
2023-05-21T08:56:03.330Z,6.91
2023-05-21T08:57:03.310Z,7.22
2023-05-21T08:58:03.301Z,6.15
2023-05-21T08:59:03.327Z,5.52
2023-05-21T09:00:03.305Z,4.86
2023-05-21T09:01:03.303Z,4.31
2023-05-21T09:02:03.274Z,4.55
2023-05-21T09:03:03.309Z,5.30
2023-05-21T09:04:16.117Z,5.43
2023-05-21T09:05:04.271Z,5.44
2023-05-21T09:06:03.250Z,5.37
2023-05-21T09:07:03.258Z,5.46
2023-05-21T09:08:03.218Z,5.62
2023-05-21T09:09:03.213Z,5.85
2023-05-21T09:10:03.229Z,6.64
2023-05-21T09:11:03.206Z,7.44
2023-05-21T09:12:03.216Z,7.63
2023-05-21T09:13:03.211Z,7.79
2023-05-21T09:14:03.227Z,8.42
2023-05-21T09:15:03.201Z,7.85
2023-05-21T09:16:03.204Z,8.02
2023-05-21T09:17:03.232Z,8.12
2023-05-21T09:18:03.225Z,8.55
2023-05-21T09:19:04.761Z,8.64
2023-05-21T09:20:03.166Z,8.28
2023-05-21T09:21:03.154Z,7.64
2023-05-21T09:22:03.166Z,7.76
2023-05-21T09:23:03.146Z,7.05
2023-05-21T09:24:03.103Z,6.45
2023-05-21T09:25:03.112Z,6.88
2023-05-21T09:26:03.123Z,6.04
2023-05-21T09:27:03.101Z,4.90
2023-05-21T09:28:03.110Z,4.74
2023-05-21T09:29:03.164Z,4.74
2023-05-21T09:30:03.083Z,4.35
2023-05-21T09:31:03.134Z,3.99
2023-05-21T09:32:03.056Z,3.96
2023-05-21T09:33:03.124Z,3.69
2023-05-21T09:34:03.100Z,3.75
2023-05-21T09:35:03.108Z,4.19
2023-05-21T09:36:03.091Z,4.05
2023-05-21T09:37:04.961Z,3.96
2023-05-21T09:38:03.086Z,3.92
2023-05-21T09:39:03.063Z,3.32
2023-05-21T09:40:03.060Z,3.52
2023-05-21T09:41:03.037Z,3.51
2023-05-21T09:42:03.085Z,3.14
2023-05-21T09:43:03.035Z,3.05
2023-05-21T09:44:03.046Z,2.07
2023-05-21T09:45:03.050Z,1.62
2023-05-21T09:46:03.072Z,1.43
2023-05-21T09:47:03.004Z,1.53
2023-05-21T09:48:03.065Z,1.66
2023-05-21T09:49:02.983Z,1.59
2023-05-21T09:50:03.001Z,1.37
2023-05-21T09:51:03.013Z,1.21
2023-05-21T09:52:02.984Z,1.26
2023-05-21T09:53:02.993Z,1.11
2023-05-21T09:54:02.958Z,1.01
2023-05-21T09:55:02.975Z,0.84
2023-05-21T09:56:02.975Z,0.94
2023-05-21T09:57:02.981Z,0.86
2023-05-21T09:58:02.949Z,0.79
2023-05-21T09:59:02.954Z,0.70
2023-05-21T10:00:02.919Z,0.60
2023-05-21T10:01:02.932Z,0.68
2023-05-21T10:02:02.978Z,0.67
2023-05-21T10:03:02.971Z,0.51
2023-05-21T10:04:02.904Z,0.50
2023-05-21T10:05:02.883Z,0.54
2023-05-21T10:06:02.895Z,0.54
2023-05-21T10:07:02.879Z,0.63
2023-05-21T10:08:02.866Z,0.56
2023-05-21T10:09:05.414Z,0.49
2023-05-21T10:10:02.877Z,0.40
2023-05-21T10:11:02.874Z,0.40
2023-05-21T10:12:02.865Z,0.43
2023-05-21T10:13:02.845Z,0.45
2023-05-21T10:14:02.822Z,0.44
2023-05-21T10:15:02.827Z,0.50
2023-05-21T10:16:02.926Z,0.54
2023-05-21T10:17:02.847Z,0.63
2023-05-21T10:18:02.874Z,0.80
2023-05-21T10:19:02.859Z,0.90
2023-05-21T10:20:02.798Z,0.87
2023-05-21T10:21:02.822Z,0.70
2023-05-21T10:22:02.778Z,0.52
2023-05-21T10:23:02.785Z,0.51
2023-05-21T10:24:02.796Z,0.51
2023-05-21T10:25:02.761Z,0.53
2023-05-21T10:26:02.751Z,0.58
2023-05-21T10:27:02.757Z,0.59
2023-05-21T10:28:02.734Z,0.53
2023-05-21T10:29:02.729Z,0.54
2023-05-21T10:30:02.728Z,0.49
2023-05-21T10:31:02.718Z,0.51
2023-05-21T10:32:02.764Z,0.50
2023-05-21T10:33:02.765Z,0.58
2023-05-21T10:34:02.701Z,0.62
2023-05-21T10:35:02.787Z,0.70
2023-05-21T10:36:02.685Z,0.66
2023-05-21T10:37:02.678Z,0.57
2023-05-21T10:38:02.688Z,0.47
2023-05-21T10:39:02.724Z,0.55
2023-05-21T10:40:02.672Z,0.63
2023-05-21T10:41:02.664Z,0.62
2023-05-21T10:42:02.672Z,0.61
2023-05-21T10:43:02.635Z,0.56
2023-05-21T10:44:02.629Z,0.49
2023-05-21T10:45:02.629Z,0.45
2023-05-21T10:46:02.661Z,0.50
2023-05-21T10:47:02.626Z,0.59
2023-05-21T10:48:02.639Z,0.80
2023-05-21T10:49:02.615Z,0.72
2023-05-21T10:50:02.598Z,0.73
2023-05-21T10:51:02.587Z,0.94
2023-05-21T10:52:02.586Z,1.04
2023-05-21T10:53:02.558Z,1.08
2023-05-21T10:54:02.569Z,1.04
2023-05-21T10:55:02.554Z,1.01
2023-05-21T10:56:02.577Z,1.10
2023-05-21T10:57:02.536Z,1.09
2023-05-21T10:58:02.571Z,0.87
2023-05-21T10:59:02.558Z,0.73
2023-05-21T11:00:02.519Z,0.75
2023-05-21T11:01:02.589Z,0.77
2023-05-21T11:02:02.577Z,0.68
2023-05-21T11:03:02.605Z,0.58
2023-05-21T11:04:02.517Z,0.64
2023-05-21T11:05:02.473Z,0.65
2023-05-21T11:06:02.504Z,0.61
2023-05-21T11:07:02.504Z,0.64
2023-05-21T11:08:02.505Z,0.64
2023-05-21T11:09:02.482Z,0.76
2023-05-21T11:10:02.447Z,0.85
2023-05-21T11:11:02.465Z,0.89
2023-05-21T11:12:02.440Z,0.83
2023-05-21T11:13:02.429Z,0.87
2023-05-21T11:14:02.468Z,0.75
2023-05-21T11:15:02.432Z,0.71
2023-05-21T11:16:02.420Z,0.75
2023-05-21T11:17:02.444Z,0.73
2023-05-21T11:18:02.478Z,0.59
2023-05-21T11:19:02.420Z,0.61
2023-05-21T11:20:02.395Z,0.61
2023-05-21T11:21:02.421Z,0.58
2023-05-21T11:22:02.467Z,0.52
2023-05-21T11:23:02.501Z,0.63
2023-05-21T11:24:02.554Z,0.71
2023-05-21T11:25:02.575Z,0.79
2023-05-21T11:26:02.622Z,0.72
2023-05-21T11:27:02.660Z,0.52
2023-05-21T11:28:02.718Z,0.50
2023-05-21T11:29:02.773Z,0.50
2023-05-21T11:30:02.827Z,0.50
2023-05-21T11:31:02.871Z,0.59
2023-05-21T11:32:03.013Z,0.71
2023-05-21T11:33:03.014Z,0.67
2023-05-21T11:34:03.111Z,0.57
2023-05-21T11:35:03.041Z,0.51
2023-05-21T11:36:03.066Z,0.51
2023-05-21T11:37:03.137Z,0.51
2023-05-21T11:38:03.191Z,0.53
2023-05-21T11:39:03.220Z,0.50
2023-05-21T11:40:03.216Z,0.54
2023-05-21T11:41:03.293Z,0.52
2023-05-21T11:42:04.634Z,0.50
2023-05-21T11:43:03.324Z,0.50
2023-05-21T11:44:03.395Z,0.54
2023-05-21T11:45:03.430Z,0.54
2023-05-21T11:46:03.514Z,0.49
2023-05-21T11:47:03.519Z,0.52
2023-05-21T11:48:03.561Z,0.63
2023-05-21T11:49:03.595Z,0.78
2023-05-21T11:50:03.587Z,0.68
2023-05-21T11:51:03.615Z,0.65
2023-05-21T11:52:03.661Z,0.68
2023-05-21T11:53:03.728Z,0.76
2023-05-21T11:54:03.734Z,0.88
2023-05-21T11:55:03.760Z,0.94
2023-05-21T11:56:03.786Z,0.77
2023-05-21T11:57:03.796Z,0.77
2023-05-21T11:58:03.815Z,0.78
2023-05-21T11:59:03.823Z,0.68
2023-05-21T12:00:03.831Z,0.57
2023-05-21T12:01:03.817Z,0.57
2023-05-21T12:02:03.840Z,0.52
2023-05-21T12:03:03.934Z,0.54
2023-05-21T12:04:04.001Z,0.56
2023-05-21T12:05:03.945Z,0.50
2023-05-21T12:06:04.025Z,0.51
2023-05-21T12:07:03.966Z,0.50
2023-05-21T12:08:04.020Z,0.54
2023-05-21T12:09:04.046Z,0.65
2023-05-21T12:10:04.029Z,0.74
2023-05-21T12:11:04.020Z,0.81
2023-05-21T12:12:04.026Z,0.93
2023-05-21T12:13:04.058Z,0.84
2023-05-21T12:14:04.072Z,0.72
2023-05-21T12:15:04.046Z,0.66
2023-05-21T12:16:06.483Z,0.71
2023-05-21T12:17:04.055Z,0.76
2023-05-21T12:18:04.045Z,0.76
2023-05-21T12:19:04.076Z,0.77
2023-05-21T12:20:04.024Z,0.82
2023-05-21T12:21:03.996Z,0.77
2023-05-21T12:22:03.978Z,0.84
2023-05-21T12:23:03.969Z,1.01
2023-05-21T12:24:04.001Z,1.12
2023-05-21T12:25:03.975Z,1.06
2023-05-21T12:26:03.969Z,0.99
2023-05-21T12:27:03.971Z,0.85
2023-05-21T12:28:03.952Z,0.80
2023-05-21T12:29:03.931Z,0.84
2023-05-21T12:30:03.931Z,0.77
2023-05-21T12:31:03.916Z,0.77
2023-05-21T12:32:03.984Z,0.74
2023-05-21T12:33:03.936Z,0.75
2023-05-21T12:34:03.929Z,0.77
2023-05-21T12:35:03.948Z,0.96
2023-05-21T12:36:03.876Z,1.09
2023-05-21T12:37:03.917Z,1.02
2023-05-21T12:38:03.877Z,1.07
2023-05-21T12:39:03.876Z,1.13
2023-05-21T12:40:03.881Z,0.95
2023-05-21T12:41:03.884Z,0.90
2023-05-21T12:42:03.852Z,1.03
2023-05-21T12:43:03.852Z,1.05
2023-05-21T12:44:03.831Z,1.07
2023-05-21T12:45:03.877Z,1.10
2023-05-21T12:46:03.893Z,1.14
2023-05-21T12:47:03.842Z,1.25
2023-05-21T12:48:03.910Z,1.31
2023-05-21T12:49:03.810Z,1.51
2023-05-21T12:50:03.796Z,1.77
2023-05-21T12:51:03.808Z,2.06
2023-05-21T12:52:03.806Z,2.25
2023-05-21T12:53:03.806Z,2.46
2023-05-21T12:54:03.841Z,2.76
2023-05-21T12:55:03.748Z,3.10
2023-05-21T12:56:03.781Z,3.63
2023-05-21T12:57:03.779Z,3.68
2023-05-21T12:58:03.791Z,3.64
2023-05-21T12:59:03.758Z,3.48
2023-05-21T13:00:03.743Z,3.08
2023-05-21T13:01:05.385Z,2.74
2023-05-21T13:02:03.760Z,3.02